Latest Weather Observations for Hamilton

IDV60801

Issued at 9:31 am EST Tuesday 1 September 2015 (issued every 30 minutes, with the page automatically refreshed every 10 minutes)

About weather observations | Map of weather stations | Latest weather observations for VIC | Other Formats
Station Details ID: 090173 Name: HAMILTON AIRPORT Lat: -37.65 Lon: 142.06 Height: 241.1 m
Data from the previous 72 hours. | See also: Recent months at Hamilton
Date/Time
EST
Temp
°C
App
Temp
°C
Dew
Point
Rel
Hum
%
Delta-T
°C
Wind Press
QNH
hPa
Press
MSL
hPa
Rain
since 9 am
mm
Dir
 
Spd
km/h
Gust
km/h
Spd
kts
Gust
kts
01/09:30am 6.6 2.1 4.1 84 1.1 N 17 20 9 11 1016.2 1016.5 0.0
01/09:00am 5.3 1.5 3.8 90 0.6 N 13 17 7 9 1016.3 1016.6 0.0
01/08:30am 3.1 -0.3 2.1 93 0.4 N 9 11 5 6 1016.2 1016.5 0.0
01/08:00am 1.2 -2.4 0.5 95 0.3 N 9 11 5 6 1016.0 1016.3 0.0
01/07:30am 0.5 -2.6 -0.1 96 0.2 N 6 7 3 4 1016.0 1016.3 0.0
01/07:00am 0.4 -3.3 -0.2 96 0.2 N 9 9 5 5 1015.8 1016.1 0.0
01/06:30am 0.1 -3.7 -0.5 96 0.2 N 9 11 5 6 1015.7 1016.0 0.0
01/06:00am -0.2 -4.4 -0.8 96 0.2 N 11 11 6 6 1015.6 1015.9 0.0
01/05:30am -0.7 -4.6 -1.4 95 0.2 NNE 9 11 5 6 1015.5 1015.8 0.0
01/05:00am -0.4 -4.6 -1.1 95 0.2 N 11 11 6 6 1015.6 1015.9 0.0
01/04:30am 0.7 -2.6 0.1 96 0.2 NE 7 9 4 5 1015.8 1016.1 0.0
01/04:00am -0.5 -4.0 -1.2 95 0.2 NNE 7 7 4 4 1015.9 1016.2 0.0
01/03:30am 0.0 -4.6 -0.7 95 0.3 E 13 15 7 8 1016.0 1016.3 0.0
01/03:00am 0.3 -3.5 -0.4 95 0.3 E 9 11 5 6 1016.5 1016.8 0.0
01/02:30am 0.6 -3.5 -0.1 95 0.3 E 11 11 6 6 1017.0 1017.3 0.0
01/02:00am 0.6 -3.5 -0.1 95 0.3 ESE 11 13 6 7 1017.4 1017.7 0.0
01/01:30am 1.0 -3.4 0.3 95 0.3 ESE 13 15 7 8 1017.7 1018.0 0.0
01/01:00am 1.3 -3.5 0.4 94 0.3 SE 15 15 8 8 1017.9 1018.2 0.0
01/12:30am 1.3 -3.1 0.4 94 0.3 SE 13 15 7 8 1018.2 1018.6 0.0
01/12:00am 1.8 -2.5 0.8 93 0.4 SE 13 15 7 8 1018.4 1018.8 0.0
 
Date/Time
EST
Temp
°C
App
Temp
°C
Dew
Point
Rel
Hum
%
Delta-T
°C
Wind Press
QNH
hPa
Press
MSL
hPa
Rain
since 9 am
mm
Dir
 
Spd
km/h
Gust
km/h
Spd
kts
Gust
kts
31/11:30pm 2.2 -2.1 1.0 92 0.5 SE 13 15 7 8 1018.7 1019.1 0.0
31/11:00pm 3.3 -0.5 2.0 91 0.5 SE 11 13 6 7 1018.9 1019.3 0.0
31/10:30pm 2.8 -1.1 1.3 90 0.6 SE 11 13 6 7 1018.9 1019.3 0.0
31/10:00pm 3.1 -0.7 1.8 91 0.5 ESE 11 13 6 7 1019.2 1019.6 0.0
31/09:30pm 3.7 -0.4 2.4 91 0.5 ESE 13 15 7 8 1019.1 1019.5 0.0
31/09:00pm 4.4 1.1 2.3 86 0.9 ESE 9 11 5 6 1019.3 1019.7 0.0
31/08:30pm 5.6 2.4 3.1 84 1.1 SE 9 11 5 6 1019.4 1019.8 0.0
31/08:00pm 6.7 3.5 3.1 78 1.5 ESE 9 13 5 7 1019.1 1019.5 0.0
31/07:30pm 7.8 4.7 3.5 74 1.9 SE 9 11 5 6 1019.0 1019.4 0.0
31/07:00pm 7.5 4.8 3.7 77 1.6 ESE 7 11 4 6 1018.8 1019.2 0.0
31/06:30pm 7.9 4.0 3.4 73 1.9 ESE 13 17 7 9 1018.4 1018.8 0.0
31/06:00pm 8.9 5.3 3.1 67 2.5 SSE 11 17 6 9 1018.5 1018.9 0.0
31/05:30pm 9.2 5.4 4.0 70 2.3 SE 13 17 7 9 1018.7 1019.1 0.0
31/05:00pm 9.7 6.1 3.2 64 2.8 SE 11 17 6 9 1018.6 1019.0 0.0
31/04:30pm 10.0 6.7 4.4 68 2.5 SE 11 17 6 9 1018.9 1019.3 0.0
31/04:00pm 10.2 6.9 4.4 67 2.6 SSE 11 15 6 8 1019.0 1019.4 0.0
31/03:30pm 10.5 7.4 3.8 63 3.0 SSE 9 13 5 7 1019.2 1019.6 0.0
31/03:00pm 10.2 6.7 3.7 64 2.9 SSE 11 19 6 10 1019.4 1019.8 0.0
31/02:30pm 10.4 6.9 3.7 63 3.0 S 11 17 6 9 1019.3 1019.7 0.0
31/02:00pm 10.2 6.4 3.9 65 2.8 SSW 13 19 7 10 1019.8 1020.1 0.0
31/01:30pm 9.9 7.1 3.4 64 2.9 SE 7 11 4 6 1020.1 1020.4 0.0
31/01:00pm 9.7 6.3 4.1 68 2.5 S 11 15 6 8 1020.6 1020.9 0.0
31/12:30pm 9.4 6.7 3.6 67 2.6 SSE 7 9 4 5 1021.0 1021.3 0.0
31/12:00pm 9.2 5.7 3.4 67 2.5 SW 11 17 6 9 1021.4 1021.7 0.0
31/11:30am 9.0 6.5 3.6 69 2.4 ESE 6 15 3 8 1021.6 1022.0 0.0
31/11:00am 9.0 6.0 4.2 72 2.1 SSE 9 19 5 10 1021.6 1022.0 0.0
31/10:30am 8.4 5.7 3.7 72 2.1 ESE 7 13 4 7 1021.9 1022.3 0.0
31/10:00am 7.7 4.5 3.2 73 1.9 SE 9 15 5 8 1022.1 1022.5 0.0
31/09:30am 7.5 3.2 3.4 75 1.8 SE 15 22 8 12 1022.0 1022.4 0.0
31/09:00am 7.1 3.2 3.5 78 1.5 S 13 17 7 9 1022.1 1022.5 0.0
31/08:30am 6.6 3.0 2.7 76 1.6 S 11 17 6 9 1022.1 1022.5 0.0
31/08:00am 6.3 3.1 3.1 80 1.3 SSE 9 15 5 8 1022.0 1022.4 0.0
31/07:30am 6.0 3.2 3.2 82 1.2 SSE 7 9 4 5 1021.8 1022.2 0.0
31/07:00am 5.9 2.6 2.7 80 1.3 SSE 9 17 5 9 1021.8 1022.2 0.0
31/06:30am 5.8 2.6 3.0 82 1.2 SSE 9 11 5 6 1021.6 1022.0 0.0
31/06:00am 5.8 3.3 3.6 86 0.9 S 6 9 3 5 1021.6 1022.0 0.0
31/05:30am 5.7 2.6 3.7 87 0.9 SSE 9 11 5 6 1021.6 1022.0 0.0
31/05:00am 5.8 4.1 3.8 87 0.9 SSE 2 7 1 4 1021.7 1022.1 0.0
31/04:30am 5.7 3.2 3.9 88 0.8 S 6 9 3 5 1021.6 1022.0 0.0
31/04:00am 5.6 3.0 4.2 91 0.6 SE 7 13 4 7 1021.6 1022.0 0.0
31/03:30am 5.3 2.4 4.4 94 0.4 SE 9 9 5 5 1021.5 1021.8 0.0
31/03:00am 5.4 2.1 4.7 95 0.3 ESE 11 13 6 7 1021.9 1022.3 0.0
31/02:34am 5.5 3.0 4.8 95 0.3 ESE 7 9 4 5 1022.4 1022.8 0.0
31/02:30am 5.5 3.0 4.8 95 0.3 SE 7 11 4 6 1022.6 1023.0 0.0
31/02:16am 5.5 2.6 4.8 95 0.3 SE 9 11 5 6 1022.8 1023.2 0.0
31/02:00am 5.7 2.4 4.8 94 0.4 SE 11 13 6 7 1022.8 1023.2 0.0
31/01:30am 5.8 2.9 4.9 94 0.4 S 9 13 5 7 1023.1 1023.5 0.0
31/01:00am 5.3 2.4 4.4 94 0.4 SSE 9 11 5 6 1023.4 1023.8 0.0
31/12:30am 6.0 3.6 5.1 94 0.4 SSE 7 9 4 5 1023.5 1023.9 0.0
31/12:06am 6.4 3.2 5.0 91 0.6 SE 11 13 6 7 1023.6 1024.0 0.0
31/12:00am 6.5 3.6 4.5 87 0.9 SE 9 11 5 6 1023.6 1024.0 0.0
 
Date/Time
EST
Temp
°C
App
Temp
°C
Dew
Point
Rel
Hum
%
Delta-T
°C
Wind Press
QNH
hPa
Press
MSL
hPa
Rain
since 9 am
mm
Dir
 
Spd
km/h
Gust
km/h
Spd
kts
Gust
kts
30/11:30pm 6.8 3.4 3.9 82 1.3 SE 11 15 6 8 1023.8 1024.2 0.0
30/11:00pm 6.8 3.0 3.8 81 1.3 SSE 13 20 7 11 1024.0 1024.3 0.0
30/10:30pm 6.8 2.9 3.6 80 1.4 SSE 13 19 7 10 1024.2 1024.5 0.0
30/10:00pm 6.9 3.5 4.0 82 1.3 SSE 11 17 6 9 1024.5 1024.8 0.0
30/09:30pm 6.8 4.0 5.0 88 0.8 SSE 9 11 5 6 1024.6 1024.9 0.0
30/09:00pm 6.8 3.6 5.1 89 0.8 SSE 11 13 6 7 1024.5 1024.8 0.0
30/08:30pm 6.6 3.0 5.1 90 0.7 SSE 13 17 7 9 1024.5 1024.8 0.0
30/08:17pm 6.7 2.8 5.3 91 0.6 SSE 15 20 8 11 1024.5 1024.8 0.0
30/08:00pm 6.8 3.4 5.7 93 0.5 SE 13 17 7 9 1024.4 1024.7 0.0
30/07:47pm 7.0 3.6 5.8 92 0.5 SSE 13 17 7 9 1024.4 1024.7 0.0
30/07:30pm 7.2 3.3 5.5 89 0.8 SSE 15 19 8 10 1024.4 1024.7 0.0
30/07:00pm 7.6 3.4 5.7 88 0.9 SSE 17 20 9 11 1024.3 1024.6 0.0
30/06:30pm 8.2 5.0 5.3 82 1.3 S 11 15 6 8 1024.1 1024.4 0.0
30/06:00pm 8.3 5.2 5.6 83 1.2 SSE 11 15 6 8 1023.8 1024.2 0.0
30/05:30pm 8.3 5.6 5.8 84 1.1 S 9 13 5 7 1024.0 1024.3 0.0
30/05:00pm 8.0 3.2 5.8 86 1.0 S 20 22 11 12 1024.1 1024.4 0.0
30/04:30pm 9.1 4.6 6.0 81 1.4 S 19 24 10 13 1024.1 1024.4 0.0
30/04:00pm 9.4 5.7 6.1 80 1.5 S 15 20 8 11 1024.2 1024.5 0.0
30/03:30pm 10.2 5.8 4.6 68 2.5 S 17 22 9 12 1024.1 1024.4 0.0
30/03:00pm 10.7 7.5 5.3 69 2.5 S 11 17 6 9 1024.2 1024.5 0.0
30/02:30pm 9.9 5.9 5.1 72 2.2 S 15 17 8 9 1024.5 1024.8 0.0
30/02:00pm 10.2 6.4 6.0 75 2.0 SE 15 22 8 12 1024.5 1024.8 0.0
30/01:30pm 10.6 6.7 7.1 79 1.7 SE 17 20 9 11 1024.7 1025.0 0.0
30/01:00pm 10.4 6.8 6.7 78 1.8 SSE 15 24 8 13 1025.0 1025.3 0.0
30/12:30pm 11.4 7.2 8.3 81 1.5 SE 20 24 11 13 1025.4 1025.8 0.0
30/12:00pm 10.3 7.2 7.4 82 1.4 SSE 13 20 7 11 1025.9 1026.3 0.0
30/11:30am 9.9 7.0 8.0 88 0.9 SSE 13 17 7 9 1026.2 1026.6 0.0
30/11:00am 9.1 5.8 6.5 84 1.2 SSE 13 19 7 10 1026.6 1027.0 0.0
30/10:53am 8.8 5.7 7.4 91 0.7 S 13 17 7 9 1026.7 1027.1 0.0
30/10:43am 8.0 4.8 6.8 92 0.6 S 13 17 7 9 1026.7 1027.1 0.0
30/10:42am 8.0 4.8 6.8 92 0.6 S 13 17 7 9 1026.7 1027.1 0.0
30/10:30am 8.2 4.6 6.8 91 0.7 SSE 15 22 8 12 1026.8 1027.2 0.0
30/10:06am 8.4 4.7 6.4 87 0.9 SSE 15 20 8 11 1026.9 1027.3 0.0
30/10:00am 8.4 4.3 6.2 86 1.0 SSE 17 24 9 13 1026.9 1027.3 0.0
30/09:51am 8.4 4.2 5.9 84 1.2 SSE 17 24 9 13 1026.9 1027.3 0.0
30/09:36am 8.2 3.8 6.5 89 0.8 SSE 19 28 10 15 1027.0 1027.4 0.0
30/09:32am 7.8 3.6 5.9 88 0.9 SSE 17 28 9 15 1027.0 1027.4 0.0
30/09:30am 8.1 4.5 6.6 90 0.7 SSE 15 24 8 13 1027.0 1027.4 0.0
30/09:00am 7.2 4.3 6.5 95 0.3 S 11 15 6 8 1027.0 1027.4 0.6
30/08:30am 6.6 3.2 6.0 96 0.3 S 13 17 7 9 1027.1 1027.5 0.6
30/08:00am 6.0 2.5 5.6 97 0.2 S 13 19 7 10 1027.0 1027.4 0.6
30/07:56am 6.1 3.0 5.7 97 0.2 S 11 19 6 10 1027.0 1027.4 0.6
30/07:49am 6.1 3.0 5.7 97 0.2 S 11 13 6 7 1026.9 1027.3 0.6
30/07:48am 6.2 3.2 5.8 97 0.2 S 11 13 6 7 1026.9 1027.3 0.6
30/07:30am 6.0 2.9 5.6 97 0.2 S 11 15 6 8 1026.6 1027.0 0.6
30/07:28am 6.0 2.9 5.6 97 0.2 SSW 11 15 6 8 1026.6 1027.0 0.6
30/07:26am 6.0 2.9 5.6 97 0.2 SSW 11 13 6 7 1026.6 1027.0 0.6
30/07:15am 5.8 2.7 5.4 97 0.2 S 11 13 6 7 1026.5 1026.9 0.6
30/07:00am 5.8 2.7 5.4 97 0.2 SSW 11 13 6 7 1026.3 1026.7 0.6
30/06:30am 5.5 1.9 4.9 96 0.3 S 13 17 7 9 1026.2 1026.6 0.6
30/06:00am 6.1 2.6 5.5 96 0.3 S 13 19 7 10 1026.1 1026.5 0.6
30/05:43am 6.0 2.9 5.6 97 0.2 SSW 11 17 6 9 1026.1 1026.5 0.6
30/05:30am 5.7 3.3 5.1 96 0.3 SSW 7 9 4 5 1025.9 1026.3 0.6
30/05:22am 6.0 3.6 5.4 96 0.3 S 7 11 4 6 1025.9 1026.3 0.6
30/05:04am 6.1 3.0 5.5 96 0.3 S 11 15 6 8 1025.9 1026.3 0.6
30/05:00am 6.0 2.9 5.4 96 0.3 S 11 15 6 8 1025.9 1026.3 0.6
30/04:30am 6.4 3.7 5.8 96 0.3 S 9 13 5 7 1025.9 1026.3 0.6
30/04:14am 6.2 3.1 5.6 96 0.3 S 11 15 6 8 1025.9 1026.3 0.6
30/04:00am 6.4 3.0 5.8 96 0.3 SSE 13 22 7 12 1026.0 1026.4 0.6
30/03:53am 6.5 2.7 5.9 96 0.3 S 15 22 8 12 1026.0 1026.4 0.6
30/03:30am 6.4 3.0 5.8 96 0.3 S 13 17 7 9 1026.2 1026.6 0.6
30/03:00am 6.6 2.9 6.2 97 0.2 S 15 22 8 12 1026.7 1027.1 0.6
30/02:30am 6.6 4.0 6.2 97 0.2 SSW 9 11 5 6 1026.7 1027.1 0.6
30/02:16am 6.4 3.8 6.0 97 0.2 SW 9 11 5 6 1026.8 1027.2 0.6
30/02:00am 6.4 3.8 6.0 97 0.2 SW 9 11 5 6 1027.0 1027.4 0.4
30/01:30am 6.5 3.5 6.1 97 0.2 SW 11 13 6 7 1027.2 1027.6 0.4
30/01:00am 6.6 3.6 6.2 97 0.2 SW 11 13 6 7 1027.5 1027.9 0.2
30/12:33am 6.6 3.2 6.0 96 0.3 SSW 13 17 7 9 1027.4 1027.8 0.0
30/12:30am 6.6 2.8 6.0 96 0.3 SSW 15 22 8 12 1027.5 1027.9 0.0
30/12:27am 6.6 2.8 6.0 96 0.3 SSW 15 22 8 12 1027.5 1027.9 0.0
30/12:00am 6.4 3.0 6.0 97 0.2 SSW 13 15 7 8 1027.5 1027.9 0.0
 
Date/Time
EST
Temp
°C
App
Temp
°C
Dew
Point
Rel
Hum
%
Delta-T
°C
Wind Press
QNH
hPa
Press
MSL
hPa
Rain
since 9 am
mm
Dir
 
Spd
km/h
Gust
km/h
Spd
kts
Gust
kts
29/11:36pm 6.3 2.5 5.7 96 0.3 S 15 20 8 11 1027.4 1027.8 0.0
29/11:30pm 6.3 2.1 5.7 96 0.3 S 17 20 9 11 1027.4 1027.8 0.0
29/11:24pm 6.3 2.5 5.7 96 0.3 S 15 17 8 9 1027.5 1027.9 0.0
29/11:00pm 6.2 3.2 5.8 97 0.2 SW 11 15 6 8 1027.7 1028.1 0.0
29/10:30pm 6.2 3.1 5.6 96 0.3 SSW 11 13 6 7 1027.9 1028.3 0.0
29/10:00pm 6.1 2.6 5.5 96 0.3 SSW 13 15 7 8 1028.0 1028.4 0.0
29/09:56pm 6.1 2.6 5.5 96 0.3 SSW 13 15 7 8 1028.0 1028.4 0.0
29/09:39pm 5.9 2.7 5.3 96 0.3 SSW 11 13 6 7 1028.4 1028.7 0.0
29/09:30pm 5.6 2.4 5.0 96 0.3 SSW 11 13 6 7 1028.5 1028.8 0.0
29/09:00pm 5.3 2.0 4.7 96 0.3 SSW 11 13 6 7 1028.4 1028.7 0.0
29/08:30pm 5.2 1.9 4.5 95 0.3 SSW 11 13 6 7 1028.1 1028.5 0.0
29/08:00pm 4.7 0.9 3.7 93 0.4 S 13 17 7 9 1028.0 1028.4 0.0
29/07:30pm 5.2 1.5 4.3 94 0.4 S 13 15 7 8 1028.1 1028.5 0.0
29/07:00pm 5.6 1.9 4.2 91 0.6 S 13 17 7 9 1027.9 1028.3 0.0
29/06:30pm 7.0 3.0 5.0 87 0.9 S 15 17 8 9 1027.6 1028.0 0.0
29/06:00pm 6.9 2.1 4.4 84 1.1 S 19 22 10 12 1027.5 1027.9 0.0
29/05:30pm 7.6 3.3 5.2 85 1.1 S 17 20 9 11 1027.6 1028.0 0.0
29/05:00pm 8.0 3.1 5.1 82 1.3 S 20 26 11 14 1027.6 1028.0 0.0
29/04:30pm 7.6 1.7 5.6 87 0.9 SSW 26 33 14 18 1027.5 1027.9 0.0
29/04:00pm 8.7 3.4 4.9 77 1.7 S 22 26 12 14 1027.5 1027.9 0.0
29/03:30pm 8.6 3.2 4.6 76 1.8 SSE 22 33 12 18 1027.5 1027.9 0.0
29/03:00pm 9.4 4.4 3.6 67 2.5 S 19 24 10 13 1027.5 1027.9 0.0
29/02:30pm 9.1 4.5 3.7 69 2.4 S 17 24 9 13 1027.5 1027.9 0.0
29/02:00pm 9.5 3.9 3.7 67 2.5 S 22 28 12 15 1027.6 1028.0 0.0
29/01:30pm 8.2 3.5 5.0 80 1.4 SSE 19 32 10 17 1028.0 1028.4 0.0
29/01:00pm 8.6 2.3 3.8 72 2.1 SE 26 33 14 18 1028.4 1028.7 0.0
29/12:30pm 8.8 3.5 3.0 67 2.5 SSE 20 32 11 17 1028.6 1029.0 0.0
29/12:00pm 8.6 2.2 3.2 69 2.3 SSE 26 33 14 18 1028.9 1029.3 0.0
29/11:30am 8.9 2.7 2.3 63 2.8 SSE 24 32 13 17 1029.1 1029.5 0.0
29/11:00am 9.0 2.8 2.3 63 2.8 SSE 24 32 13 17 1029.1 1029.5 0.0
29/10:30am 9.5 4.4 3.0 64 2.8 SSE 19 26 10 14 1029.1 1029.5 0.0
29/10:00am 8.5 3.2 1.6 62 2.9 SSE 19 28 10 15 1029.3 1029.7 0.0

Other Formats:

Comma delimited format used in spreadsheet applications
http://www.bom.gov.au/fwo/IDV60801/IDV60801.94829.axf

JavaScript Object Notation format (JSON) in row-major order
http://www.bom.gov.au/fwo/IDV60801/IDV60801.94829.json